Elco, Illinois
Current Conditions -  °F | °C
As of 5:15 PM on Wednesday 26 Nov 2014 (Local Time) from KCIR Reporting Station
Overcast Overcast  
Wind Chill: 35°   Ceiling: 1400
Heat Index: 41°   Visibility: 10mi
Dew Point: 37°   Wind: 10mph
Humidity: 85%   Direction: 270°W
Pressure: 30.03"   Gusts: NA
Location:  37.2537°N, 89.2938°W
Report Text: KCIR 262315Z AUTO 27009KT 10SM BKN014 BKN019 OVC048 05/03 A3003 RMK AO2 T00500026
Loading
Personal Weather Stations






























Interactive Weather Map New forecast layout! Learn more

10-Day Weather Forecast

Advertisements
Track Severe Weather on mobile